Data for 09/03/2005

Time Sea-Level Adjusted Pressure Absolute Pressure Temperature Relative Humidity Dew Point   
(mb) (inHg) (mb) (inHg) (C) (F) (%) (C) (F)
00:05 1017 30.03 846 24.98 22.2 71.9 16 -4.7 23.6
00:10 1017 30.03 846 24.98 22 71.6 17 -3.7 25.4
00:15 1017 30.03 846 24.98 21.8 71.3 17 -3.7 25.3
00:20 1017 30.03 846 24.98 21.8 71.3 17 -4.1 24.6
00:25 1017 30.03 846 24.98 21.8 71.2 17 -3.9 24.9
00:30 1017 30.03 846 24.98 21.7 71 18 -3.7 25.4
00:35 1017 30.03 846 24.98 21.6 71 18 -3.5 25.6
00:40 1017 30.03 846 24.98 21.7 71 18 -3.8 25.2
00:45 1017 30.03 846 24.98 21.7 71.1 17 -4.1 24.5
00:50 1017 30.03 846 24.98 21.6 70.9 18 -3.5 25.7
00:55 1017 30.03 846 24.98 21.3 70.4 18 -3.7 25.3
01:00 1017 30.03 846 24.98 21.2 70.2 18 -3.7 25.4
01:05 1017 30.03 846 24.98 21.2 70.2 18 -3.7 25.3
01:10 1017 30.03 846 24.98 21.2 70.2 18 -3.9 25.1
01:15 1017 30.03 846 24.98 21.2 70.1 18 -3.7 25.4
01:20 1017 30.03 846 24.98 21.1 69.9 19 -3.5 25.6
01:25 1017 30.03 846 24.98 20.9 69.7 19 -3.5 25.7
01:30 1017 30.03 846 24.98 20.8 69.5 19 -3.8 25.2
01:35 1017 30.03 846 24.98 20.9 69.6 19 -3.6 25.5
01:40 1017 30.03 846 24.98 21 69.8 19 -3.7 25.4
01:45 1017 30.03 846 24.98 20.9 69.6 19 -3.6 25.6
01:50 1017 30.03 846 24.98 20.8 69.5 19 -3.2 26.3
01:55 1017 30.03 846 24.98 20.7 69.3 19 -3.7 25.4
02:00 1017 30.03 846 24.98 20.7 69.2 19 -3.4 25.9
02:05 1017 30.03 846 24.98 20.5 68.9 20 -3.3 26
02:10 1017 30.03 846 24.98 20.4 68.7 20 -2.9 26.7
02:15 1017 30.03 846 24.98 20.1 68.3 21 -2.7 27.1
02:20 1017 30.03 846 24.98 20.2 68.3 20 -3 26.6
02:25 1017 30.03 846 24.98 20 68.1 21 -3 26.6
02:30 1017 30.03 846 24.98 20 67.9 21 -2.9 26.7
02:35 1017 30.03 846 24.98 19.7 67.4 21 -2.8 26.9
02:40 1017 30.03 846 24.98 19.5 67 22 -2.7 27.2
02:45 1017 30.03 846 24.98 19.5 67.1 24 -1.4 29.5
02:50 1017 30.03 846 24.98 19.3 66.7 23 -2.5 27.5
02:55 1017 30.03 846 24.98 19 66.2 23 -2.6 27.3
03:00 1017 30.03 846 24.98 18.8 65.9 23 -2.5 27.4
03:05 1017 30.03 846 24.98 18.7 65.7 23 -2.5 27.6
03:10 1017 30.03 846 24.98 18.5 65.3 24 -2.5 27.5
03:15 1017 30.03 846 24.98 18.5 65.2 24 -2.6 27.4
03:20 1017 30.03 846 24.98 18.4 65.1 25 -1.8 28.8
03:25 1017 30.03 846 24.98 18.3 65 24 -2.5 27.5
03:30 1017 30.03 846 24.98 18.2 64.7 25 -1.9 28.6
03:35 1017 30.03 846 24.98 17.7 63.9 26 -1.8 28.7
03:40 1017 30.03 846 24.98 17.6 63.6 26 -2.1 28.1
03:45 1017 30.03 846 24.98 17.7 63.9 25 -2.2 28
03:50 1017 30.03 846 24.98 17.6 63.7 30 0 32.1
03:55 1016 30 846 24.98 17.8 64 25 -2.2 28.1
04:00 1017 30.03 846 24.98 17.6 63.7 26 -2.2 28.1
04:05 1016 30 846 24.98 17.4 63.2 27 -1.9 28.5
04:10 1016 30 846 24.98 17.2 63 27 -2 28.4
04:15 1016 30 846 24.98 17.2 62.9 27 -2.1 28.2
04:20 1016 30 846 24.98 17.5 63.5 26 -2.1 28.2
04:25 1016 30 846 24.98 17.5 63.6 26 -2.1 28.2
04:30 1016 30 846 24.98 17.5 63.6 26 -1.8 28.7
04:35 1016 30 846 24.98 17.5 63.6 30 0.1 32.2
04:40 1016 30 846 24.98 17.5 63.5 25 -2.4 27.6
04:45 1016 30 846 24.98 17.8 64 28 -1 30.3
04:50 1016 30 846 24.98 17.8 64 26 -1.8 28.8
04:55 1016 30 846 24.98 17.3 63.2 27 -1.7 29
05:00 1016 30 846 24.98 17.2 63 28 -1.4 29.5
05:05 1016 30 846 24.98 17.1 62.7 28 -1.4 29.5
05:10 1016 30 846 24.98 16.8 62.2 28 -1.8 28.8
05:15 1016 30 846 24.98 17.1 62.7 29 -0.9 30.3
05:20 1016 30 846 24.98 16.8 62.3 28 -1.8 28.8
05:25 1016 30 846 24.98 17 62.6 28 -1.8 28.8
05:30 1016 30 846 24.98 17 62.5 28 -1.7 29
05:35 1016 30 846 24.98 17.3 63.1 27 -1.5 29.2
05:40 1017 30.03 846 24.98 17.2 63 28 -1.6 29.2
05:45 1016 30 846 24.98 17.1 62.7 29 -1 30.2
05:50 1016 30 846 24.98 17.1 62.7 29 -1.1 30
05:55 1016 30 846 24.98 16.8 62.3 30 -1 30.3
06:00 1016 30 846 24.98 16.7 62.1 28 -1.5 29.2
06:05 1016 30 846 24.98 17 62.6 28 -1.6 29.2
06:10 1016 30 846 24.98 16.8 62.3 30 -0.9 30.4
06:15 1016 30 846 24.98 16.6 61.8 31 -0.5 31.1
06:20 1016 30 846 24.98 16.5 61.7 30 -1.2 29.9
06:25 1016 30 846 24.98 16.9 62.4 30 -0.9 30.4
06:30 1016 30 846 24.98 17 62.5 29 -1.1 30
06:35 1016 30 846 24.98 17.1 62.7 30 -0.7 30.7
06:40 1016 30 846 24.98 16.9 62.3 30 -0.5 31.1
06:45 1017 30.03 846 24.98 16.8 62.3 31 -0.1 31.8
06:50 1017 30.03 846 24.98 16.9 62.5 30 -0.8 30.6
06:55 1017 30.03 846 24.98 17.3 63.2 31 -0 32
07:00 1017 30.03 846 24.98 17.8 64.1 27 -1.3 29.7
07:05 1017 30.03 846 24.98 18 64.4 28 -0.9 30.4
07:10 1017 30.03 846 24.98 18.2 64.7 27 -1 30.1
07:15 1017 30.03 846 24.98 18.5 65.3 27 -0.9 30.4
07:20 1017 30.03 846 24.98 18.2 64.8 28 -0.2 31.6
07:25 1017 30.03 846 24.98 18.3 64.9 28 -0.5 31.1
07:30 1017 30.03 846 24.98 18.1 64.6 29 -0.1 31.9
07:35 1017 30.03 846 24.98 18.1 64.6 30 0.5 32.9
07:40 1017 30.03 846 24.98 17.8 64.1 31 0.5 32.9
07:45 1017 30.03 846 24.98 18 64.3 30 0.4 32.7
07:50 1017 30.03 846 24.98 18.5 65.2 29 0.3 32.5
07:55 1017 30.03 846 24.98 18.9 66.1 28 0.2 32.3
08:00 1017 30.03 846 24.98 19.2 66.6 28 0.4 32.7
08:05 1017 30.03 846 24.98 19.4 67 27 0.3 32.5
08:10 1017 30.03 846 24.98 19.7 67.4 28 0.7 33.3
08:15 1017 30.03 846 24.98 19.5 67.1 27 0.3 32.5
08:20 1017 30.03 846 24.98 19.7 67.4 27 0.2 32.4
08:25 1017 30.03 846 24.98 19.7 67.4 29 1.4 34.5
08:30 1017 30.03 846 24.98 19.8 67.6 29 1.4 34.4
08:35 1017 30.03 846 24.98 20.5 68.8 31 2.9 37.3
08:40 1017 30.03 846 24.98 20.7 69.3 25 0.3 32.5
08:45 1017 30.03 847 25.01 21.2 70.1 30 3.3 37.9
08:50 1017 30.03 847 25.01 20.8 69.5 32 3.6 38.6
08:55 1018 30.06 847 25.01 21.1 70 33 4.4 39.9
09:00 1018 30.06 847 25.01 21.5 70.6 30 3.4 38
09:05 1018 30.06 847 25.01 21.3 70.3 30 3.4 38
09:10 1017 30.03 847 25.01 21.2 70.2 30 3.2 37.8
09:15 1017 30.03 847 25.01 20.8 69.4 32 3.5 38.4
09:20 1018 30.06 847 25.01 20.7 69.3 30 2.8 37.1
09:25 1017 30.03 847 25.01 21.1 70 29 2.8 37
09:30 1018 30.06 847 25.01 21.9 71.3 28 2.6 36.8
09:35 1018 30.06 847 25.01 22.4 72.3 26 2.4 36.4
09:40 1018 30.06 847 25.01 22.9 73.3 26 2.7 36.9
09:45 1018 30.06 847 25.01 23.2 73.8 26 2.7 36.8
09:50 1018 30.06 847 25.01 23.3 74 26 3 37.5
09:55 1018 30.06 847 25.01 23 73.5 26 2.8 37
10:00 1018 30.06 847 25.01 23.2 73.8 25 2.4 36.3
10:05 1018 30.06 847 25.01 23.6 74.5 26 3 37.5
10:10 1018 30.06 847 25.01 24.1 75.4 25 3.3 38
10:15 1017 30.03 847 25.01 25.2 77.3 24 3.3 37.9
10:20 1017 30.03 847 25.01 26.3 79.3 22 3.2 37.8
10:25 1017 30.03 847 25.01 27.4 81.3 22 3.9 39
10:30 1017 30.03 847 25.01 27.9 82.2 22 4.4 39.9
10:35 1017 30.03 847 25.01 28 82.4 22 4.6 40.3
10:40 1017 30.03 847 25.01 28.2 82.8 18 2.1 35.8
10:45 1017 30.03 846 24.98 29.1 84.5 20 4 39.1
10:50 1017 30.03 846 24.98 28.6 83.4 17 1.8 35.3
10:55 1017 30.03 846 24.98 28.5 83.3 17 1.6 34.9
11:00 1017 30.03 846 24.98 28.7 83.6 16 0.5 32.9
11:05 1017 30.03 846 24.98 28.2 82.8 15 -0.7 30.8
11:10 1017 30.03 846 24.98 28.4 83 15 -0.2 31.6
11:15 1017 30.03 846 24.98 28.4 83.1 16 0.5 33
11:20 1017 30.03 846 24.98 28.3 82.9 14 -1 30.2
11:25 1017 30.03 846 24.98 28.4 83.1 14 -1.3 29.6
11:30 1017 30.03 846 24.98 28.5 83.3 15 -0.8 30.6
11:35 1017 30.03 846 24.98 29.3 84.7 17 2.4 36.3
11:40 1017 30.03 846 24.98 30.2 86.4 18 3.3 38
11:45 1017 30.03 846 24.98 30.4 86.7 18 3.5 38.2
11:50 1017 30.03 846 24.98 30.2 86.4 17 3 37.4
11:55 1017 30.03 846 24.98 30.1 86.1 18 3.1 37.6
12:00 1017 30.03 846 24.98 30 86 16 1.6 34.9
12:05 1017 30.03 846 24.98 29.3 84.8 18 2.5 36.5
12:10 1017 30.03 846 24.98 28.8 83.8 17 1.9 35.3
12:15 1017 30.03 846 24.98 28.5 83.2 17 1.7 35.1
12:20 1017 30.03 846 24.98 28.3 83 18 2.2 36
12:25 1017 30.03 846 24.98 28.3 82.9 17 1.2 34.2
12:30 1017 30.03 846 24.98 28.3 83 18 2 35.5
12:35 1017 30.03 846 24.98 28.7 83.6 19 3 37.4
12:40 1017 30.03 846 24.98 28.4 83.2 18 2.3 36.2
12:45 1017 30.03 846 24.98 28.5 83.2 18 1.9 35.5
12:50 1017 30.03 846 24.98 28.3 82.9 18 2.1 35.9
12:55 1017 30.03 846 24.98 28.3 82.9 19 2.7 36.9
13:00 1017 30.03 846 24.98 28.5 83.4 18 2.5 36.5
13:05 1017 30.03 846 24.98 28.7 83.6 16 0.6 33
13:10 1017 30.03 846 24.98 28.8 83.8 16 0.8 33.5
13:15 1017 30.03 846 24.98 29.3 84.8 15 0.8 33.4
13:20 1016 30 846 24.98 29.8 85.7 16 1.6 34.8
13:25 1016 30 846 24.98 30.3 86.5 15 0.7 33.2
13:30 1016 30 846 24.98 30.9 87.6 14 0.2 32.4
13:35 1016 30 846 24.98 31.5 88.6 12 -0.5 31.1
13:40 1016 30 845 24.95 31 87.9 12 -1.6 29.1
13:45 1016 30 845 24.95 30.3 86.5 12 -1.7 28.9
13:50 1016 30 845 24.95 30.9 87.5 12 -1.6 29.2
13:55 1016 30 845 24.95 30.3 86.5 13 -1 30.1
14:00 1016 30 845 24.95 29.9 85.7 13 -1.6 29.1
14:05 1016 30 845 24.95 30.7 87.3 12 -1.5 29.4
14:10 1016 30 845 24.95 31 87.7 12 -1.5 29.3
14:15 1016 30 845 24.95 30.6 87 13 -0.7 30.7
14:20 1016 30 845 24.95 30.9 87.5 12 -1 30.1
14:25 1016 30 845 24.95 30.6 87 12 -1.4 29.5
14:30 1016 30 845 24.95 29.9 85.7 13 -1.1 30
14:35 1016 30 845 24.95 29.8 85.6 13 -0.8 30.5
14:40 1015 29.97 845 24.95 30.1 86.1 12 -2 28.4
14:45 1015 29.97 845 24.95 30.2 86.3 13 -1 30.1
14:50 1015 29.97 844 24.92 30.5 87 11 -2.7 27.1
14:55 1015 29.97 844 24.92 30.8 87.4 11 -2.4 27.7
15:00 1015 29.97 844 24.92 31.1 87.9 12 -1.3 29.6
15:05 1015 29.97 844 24.92 30.5 87 13 -0.2 31.6
15:10 1015 29.97 845 24.95 30.4 86.7 13 -0.4 31.2
15:15 1015 29.97 844 24.92 30.6 87 13 -0.8 30.6
15:20 1015 29.97 844 24.92 30.5 86.9 12 -1.5 29.3
15:25 1015 29.97 844 24.92 30.8 87.4 12 -1.5 29.2
15:30 1015 29.97 844 24.92 31 87.8 12 -1.5 29.3
15:35 1015 29.97 844 24.92 30.8 87.4 12 -2 28.4
15:40 1015 29.97 844 24.92 30.4 86.8 12 -1.4 29.4
15:45 1015 29.97 844 24.92 31 87.8 11 -2 28.4
15:50 1015 29.97 844 24.92 31.1 88 12 -1.4 29.6
15:55 1015 29.97 844 24.92 30.8 87.5 11 -2.8 26.9
16:00 1015 29.97 844 24.92 31.1 88.1 11 -2.6 27.3
16:05 1015 29.97 844 24.92 31.1 87.9 12 -1.4 29.5
16:10 1015 29.97 844 24.92 31.2 88.1 11 -2.7 27.1
16:15 1015 29.97 844 24.92 30.9 87.6 11 -2.8 27
16:20 1015 29.97 844 24.92 30.7 87.2 12 -2.2 28.1
16:25 1015 29.97 844 24.92 30.3 86.5 12 -2.5 27.5
16:30 1015 29.97 844 24.92 29.9 85.8 13 -1.2 29.9
16:35 1015 29.97 844 24.92 30.5 86.9 12 -2.2 28
16:40 1015 29.97 844 24.92 30.4 86.6 12 -1.8 28.7
16:45 1015 29.97 844 24.92 30.3 86.6 11 -3 26.6
16:50 1015 29.97 844 24.92 30.3 86.5 13 -1.2 29.8
16:55 1015 29.97 844 24.92 29.8 85.6 13 -1 30.1
17:00 1015 29.97 844 24.92 30.2 86.4 13 -0.6 30.9
17:05 1015 29.97 844 24.92 30.5 86.9 13 -0.5 31.1
17:10 1015 29.97 844 24.92 30.3 86.5 14 -0.1 31.9
17:15 1015 29.97 844 24.92 29.9 85.9 14 -0.4 31.4
17:20 1015 29.97 844 24.92 30 86 15 0.8 33.4
17:25 1015 29.97 844 24.92 29.8 85.7 15 0.6 33.1
17:30 1015 29.97 844 24.92 29.6 85.3 15 0.6 33.1
17:35 1015 29.97 844 24.92 29.4 84.9 15 0.2 32.3
17:40 1015 29.97 844 24.92 29.5 85.1 15 0.2 32.3
17:45 1015 29.97 844 24.92 29.8 85.6 14 -0 32
17:50 1015 29.97 844 24.92 29.6 85.3 13 -1.4 29.5
17:55 1015 29.97 844 24.92 29.7 85.4 12 -2.1 28.2
18:00 1015 29.97 844 24.92 29.7 85.5 13 -1.8 28.8
18:05 1014 29.94 844 24.92 29.6 85.3 13 -1.5 29.3
18:10 1015 29.97 844 24.92 29.5 85.1 13 -1.1 30
18:15 1015 29.97 844 24.92 29.2 84.6 14 -1.1 30.1
18:20 1015 29.97 844 24.92 28.8 83.9 14 -0.8 30.6
18:25 1014 29.94 844 24.92 28.6 83.5 13 -1.7 28.9
18:30 1015 29.97 844 24.92 28.8 83.8 13 -1.8 28.7
18:35 1015 29.97 844 24.92 28.7 83.6 13 -1.7 29
18:40 1015 29.97 844 24.92 28.5 83.4 14 -1.6 29.1
18:45 1014 29.94 844 24.92 28.4 83.2 13 -1.9 28.6
18:50 1014 29.94 844 24.92 28.2 82.7 14 -1.1 30
18:55 1014 29.94 844 24.92 27.8 82 18 1.3 34.4
19:00 1014 29.94 844 24.92 27.5 81.5 15 -1.1 30
19:05 1014 29.94 844 24.92 27.4 81.4 15 -1.3 29.6
19:10 1014 29.94 844 24.92 27.2 80.9 13 -2.9 26.7
19:15 1014 29.94 844 24.92 27.6 81.7 12 -3.8 25.1
19:20 1014 29.94 843 24.89 28.2 82.7 12 -3.6 25.5
19:25 1014 29.94 844 24.92 28 82.4 12 -3.5 25.6
19:30 1014 29.94 844 24.92 27.6 81.7 12 -4 24.8
19:35 1014 29.94 843 24.89 27.8 82 12 -3.6 25.5
19:40 1014 29.94 844 24.92 27.4 81.4 13 -3.6 25.4
19:45 1014 29.94 844 24.92 27.3 81.1 13 -3.3 26
19:50 1014 29.94 844 24.92 26.8 80.2 14 -3 26.5
19:55 1014 29.94 844 24.92 26.6 79.9 13 -3.6 25.5
20:00 1015 29.97 844 24.92 26.7 80 14 -3.1 26.3
20:05 1014 29.94 844 24.92 26.1 79 14 -3.6 25.5
20:10 1015 29.97 844 24.92 25.9 78.7 14 -3.2 26.2
20:15 1015 29.97 844 24.92 25.9 78.7 14 -3.6 25.5
20:20 1015 29.97 844 24.92 25.5 77.9 16 -2.1 28.3
20:25 1015 29.97 844 24.92 25.3 77.5 14 -3.9 24.9
20:30 1015 29.97 844 24.92 25.2 77.4 14 -3.6 25.6
20:35 1015 29.97 844 24.92 25.4 77.6 14 -4 24.8
20:40 1015 29.97 844 24.92 25.3 77.5 15 -2.9 26.9
20:45 1015 29.97 844 24.92 25 76.9 15 -3.3 26.1
20:50 1015 29.97 844 24.92 24.8 76.6 14 -3.9 25
20:55 1015 29.97 844 24.92 24.8 76.7 16 -2.9 26.8
21:00 1015 29.97 844 24.92 24.4 75.9 15 -3.6 25.6
21:05 1015 29.97 844 24.92 24.6 76.4 15 -3.1 26.4
21:10 1015 29.97 844 24.92 24.4 76 15 -3.3 26
21:15 1015 29.97 844 24.92 25 76.9 15 -3.1 26.5
21:20 1015 29.97 844 24.92 24.7 76.5 16 -2.9 26.8
21:25 1015 29.97 844 24.92 24.8 76.6 15 -3.1 26.5
21:30 1015 29.97 844 24.92 24.3 75.7 16 -2.8 27
21:35 1015 29.97 844 24.92 23.8 74.8 18 -1.9 28.6
21:40 1015 29.97 844 24.92 23.2 73.7 19 -1.8 28.8
21:45 1015 29.97 844 24.92 23.2 73.7 18 -2.4 27.7
21:50 1015 29.97 844 24.92 23.2 73.8 18 -1.8 28.7
21:55 1015 29.97 844 24.92 23.2 73.7 18 -2.1 28.2
22:00 1015 29.97 844 24.92 23.2 73.8 21 -0.2 31.7
22:05 1015 29.97 844 24.92 23.2 73.7 18 -2.6 27.3
22:10 1015 29.97 844 24.92 23.4 74.2 18 -2 28.4
22:15 1015 29.97 844 24.92 23.3 73.9 16 -3.6 25.6
22:20 1015 29.97 844 24.92 23.7 74.6 20 -0.4 31.3
22:25 1015 29.97 844 24.92 23.5 74.3 17 -2.4 27.7
22:30 1015 29.97 844 24.92 23.3 73.9 20 -0.7 30.7
22:35 1015 29.97 844 24.92 23.5 74.3 18 -1.8 28.8
22:40 1015 29.97 844 24.92 23.3 73.9 16 -3.9 24.9
22:45 1015 29.97 845 24.95 23.5 74.2 21 0.3 32.5
22:50 1015 29.97 845 24.95 23.5 74.3 16 -3.9 24.9
22:55 1016 30 845 24.95 23.8 74.9 18 -1.5 29.3
23:00 1016 30 845 24.95 22 71.6 23 0 32.1
23:05 1016 30 845 24.95 21.1 69.9 22 -1.4 29.5
23:10 1016 30 845 24.95 21.5 70.7 21 -1.4 29.5
23:15 1016 30 845 24.95 22 71.5 20 -1.7 28.9
23:20 1016 30 845 24.95 22.3 72.1 21 -0.7 30.8
23:25 1016 30 845 24.95 22.3 72.2 20 -1.6 29.1
23:30 1016 30 845 24.95 22.2 72 19 -2.6 27.3
23:35 1016 30 845 24.95 22.5 72.6 19 -2.2 28
23:40 1016 30 845 24.95 22.5 72.5 20 -1.5 29.3
23:45 1016 30 845 24.95 22.6 72.7 19 -1.9 28.7
23:50 1016 30 845 24.95 22.5 72.5 19 -1.7 28.9
23:55 1016 30 846 24.98 22.2 71.9 20 -1.7 29
24:00 1016 30 846 24.98 22.1 71.7 20 -1.6 29.1